Track Курганова Милана

Time Latitude Longitude Accuracy (66% radius in meters) Altitude (meters) Speed (km/hour) Bearing (degrees) Battery (%) GPS flag
07:11:15 54.460882 53.534695 0 0 0 0 1 delete
07:11:14 54.460915 53.534743 0 0 0 0 1 delete
07:11:13 54.460942 53.534796 0 0 0 0 1 delete
07:11:11 54.460976 53.534873 0 0 0 0 1 delete
07:11:09 54.460976 53.534943 0 0 0 0 1 delete
07:09:57 54.460801 53.534485 0 0 0 0 1 delete
07:09:52 54.460787 53.534442 0 0 0 0 1 delete
07:09:51 54.460789 53.534385 0 0 0 0 1 delete
07:09:48 54.460794 53.534329 0 0 0 0 1 delete
07:09:44 54.460826 53.534324 0 0 0 0 1 delete
07:09:37 54.460855 53.534314 0 0 0 0 1 delete
07:09:32 54.460872 53.534276 0 0 0 0 1 delete
07:09:27 54.460845 53.534299 0 0 0 0 1 delete
07:09:22 54.460820 53.534331 0 0 0 0 1 delete
07:09:19 54.460825 53.534385 0 0 0 0 1 delete
07:09:17 54.460831 53.534436 0 0 0 0 1 delete
07:09:14 54.460832 53.534502 0 0 0 0 1 delete
07:09:12 54.460838 53.534552 0 0 0 0 1 delete
07:09:07 54.460848 53.534596 0 0 0 0 1 delete
07:09:04 54.460854 53.534651 0 0 0 0 1 delete
07:09:01 54.460866 53.534698 0 0 0 0 1 delete
07:08:58 54.460881 53.534754 0 0 0 0 1 delete
07:08:55 54.460910 53.534801 0 0 0 0 1 delete
07:08:52 54.460939 53.534842 0 0 0 0 1 delete
07:08:49 54.460950 53.534900 0 0 0 0 1 delete
07:08:46 54.460948 53.534962 0 0 0 0 1 delete
07:08:41 54.460936 53.535014 0 0 0 0 1 delete
07:08:37 54.460919 53.535053 0 0 0 0 1 delete
07:08:34 54.460907 53.535106 0 0 0 0 1 delete
07:08:31 54.460904 53.535163 0 0 0 0 1 delete
07:08:28 54.460906 53.535212 0 0 0 0 1 delete
07:08:25 54.460908 53.535262 0 0 0 0 1 delete
07:08:22 54.460915 53.535314 0 0 0 0 1 delete
07:08:19 54.460921 53.535365 0 0 0 0 1 delete
07:08:16 54.460923 53.535426 0 0 0 0 1 delete
07:08:13 54.460922 53.535485 0 0 0 0 1 delete
07:08:10 54.460923 53.535536 0 0 0 0 1 delete
07:08:07 54.460920 53.535594 0 0 0 0 1 delete
07:08:04 54.460913 53.535644 0 0 0 0 1 delete
07:08:01 54.460905 53.535703 0 0 0 0 1 delete
07:07:58 54.460899 53.535755 0 0 0 0 1 delete
07:07:55 54.460902 53.535810 0 0 0 0 1 delete
07:07:52 54.460899 53.535860 0 0 0 0 1 delete
07:07:49 54.460895 53.535918 0 0 0 0 1 delete
07:07:46 54.460890 53.535978 0 0 0 0 1 delete
07:07:43 54.460884 53.536026 0 0 0 0 1 delete
07:07:40 54.460876 53.536075 0 0 0 0 1 delete
07:07:37 54.460868 53.536128 0 0 0 0 1 delete
07:07:34 54.460866 53.536181 0 0 0 0 1 delete
07:07:31 54.460850 53.536228 0 0 0 0 1 delete